Time;durP1;ratioP1;P1;durP2;ratioP2;P2;SDS_P1;SDS_P2;PMS_P1;PMS_P2;Temp;Humidity;BMP_temperature;BMP_pressure;BME280_temperature;BME280_humidity;BME280_pressure;Samples;Min_cycle;Max_cycle;Signal;HPM_P1;HPM_P2
2023/04/08 00:01:36;;;;;;;7.80;3.47;;;;;;;5.10;42.00;100314.84;7347909;19;20349;-71
2023/04/08 00:04:01;;;;;;;7.50;4.00;;;;;;;4.93;42.57;100318.16;7346494;19;20022;-71
2023/04/08 00:06:27;;;;;;;14.60;4.05;;;;;;;4.79;42.74;100320.44;7346649;19;20034;-71
2023/04/08 00:08:51;;;;;;;10.45;3.90;;;;;;;4.78;42.90;100328.44;7343283;19;20623;-70
2023/04/08 00:11:16;;;;;;;8.73;4.20;;;;;;;4.89;42.89;100313.91;7346664;19;20339;-71
2023/04/08 00:13:41;;;;;;;8.85;4.05;;;;;;;4.75;43.00;100310.91;7346420;19;20461;-72
2023/04/08 00:16:06;;;;;;;11.48;4.70;;;;;;;4.67;43.30;100320.91;7344323;19;20018;-72
2023/04/08 00:18:31;;;;;;;11.10;4.90;;;;;;;4.60;43.49;100320.28;7350067;19;20015;-71
2023/04/08 00:20:56;;;;;;;10.93;4.75;;;;;;;4.75;43.36;100311.75;7350080;19;20017;-71
2023/04/08 00:23:20;;;;;;;7.72;4.05;;;;;;;4.73;43.60;100311.00;7351225;19;20354;-71
2023/04/08 00:25:45;;;;;;;9.75;5.22;;;;;;;4.66;43.65;100314.75;7352750;19;20323;-71
2023/04/08 00:28:10;;;;;;;8.90;5.50;;;;;;;4.56;43.90;100318.66;7345654;19;20049;-72
2023/04/08 00:30:37;;;;;;;7.13;4.15;;;;;;;4.62;43.95;100314.94;7346146;19;20019;-72
2023/04/08 00:33:01;;;;;;;9.77;4.75;;;;;;;4.59;43.93;100321.19;7346212;19;20486;-70
2023/04/08 00:35:26;;;;;;;11.32;4.53;;;;;;;4.51;44.23;100317.09;7346148;19;20335;-72
2023/04/08 00:37:51;;;;;;;9.02;4.60;;;;;;;4.50;44.32;100318.88;7346691;19;20010;-71
2023/04/08 00:40:15;;;;;;;9.27;4.30;;;;;;;4.53;44.20;100317.88;7345199;19;20095;-70
2023/04/08 00:42:40;;;;;;;8.55;4.80;;;;;;;4.53;44.13;100328.44;7348917;19;20354;-71
2023/04/08 00:45:05;;;;;;;9.25;5.32;;;;;;;4.54;44.31;100319.63;7344325;19;20007;-71
2023/04/08 00:47:35;;;;;;;10.90;4.20;;;;;;;4.46;44.65;100325.19;7348383;19;20010;-72
2023/04/08 00:50:00;;;;;;;9.57;4.82;;;;;;;4.41;44.82;100315.69;7342411;19;20011;-69
2023/04/08 00:52:26;;;;;;;12.57;5.18;;;;;;;4.42;44.71;100326.19;7342116;19;20029;-70
2023/04/08 00:54:51;;;;;;;7.97;4.63;;;;;;;4.35;44.73;100312.34;7345629;19;20030;-73
2023/04/08 00:57:18;;;;;;;11.32;4.80;;;;;;;4.42;44.77;100315.63;7341999;19;20047;-73
2023/04/08 00:59:42;;;;;;;9.45;4.82;;;;;;;4.40;44.95;100314.84;7343138;19;20015;-68
2023/04/08 01:02:16;;;;;;;8.60;4.03;;;;;;;4.38;44.93;100319.31;7342815;19;20126;-70
2023/04/08 01:05:05;;;;;;;16.63;5.32;;;;;;;4.41;44.60;100323.59;7341377;19;20090;-71
2023/04/08 01:07:37;;;;;;;13.27;4.95;;;;;;;4.37;45.01;100320.22;7340229;19;20454;-68
2023/04/08 01:10:15;;;;;;;8.80;3.92;;;;;;;4.30;45.46;100326.63;7341091;19;20376;-69
2023/04/08 01:12:47;;;;;;;9.02;4.43;;;;;;;4.24;45.43;100317.16;7341702;19;20114;-69
2023/04/08 01:15:12;;;;;;;8.73;4.97;;;;;;;4.21;45.35;100314.63;7343950;19;20160;-72
2023/04/08 01:17:39;;;;;;;10.18;5.10;;;;;;;4.25;45.50;100320.66;7341019;19;20085;-72
2023/04/08 01:20:06;;;;;;;12.00;5.15;;;;;;;4.23;45.70;100326.00;7341671;19;20028;-69
2023/04/08 01:22:49;;;;;;;10.57;5.30;;;;;;;4.20;45.68;100325.22;7341339;19;20021;-73
2023/04/08 01:25:18;;;;;;;19.50;5.30;;;;;;;4.18;45.79;100325.28;7341094;19;20014;-71
2023/04/08 01:27:46;;;;;;;9.27;5.43;;;;;;;4.14;45.79;100326.31;7342449;19;20018;-72
2023/04/08 01:30:11;;;;;;;9.25;4.60;;;;;;;4.14;45.88;100330.72;7341831;19;20789;-69
2023/04/08 01:32:38;;;;;;;11.70;5.50;;;;;;;4.12;46.03;100329.91;7346408;19;20015;-71
2023/04/08 01:35:05;;;;;;;10.82;5.07;;;;;;;4.11;46.14;100322.91;7340790;19;20015;-74
2023/04/08 01:37:35;;;;;;;11.85;5.20;;;;;;;4.10;46.29;100326.44;7341654;19;20022;-68
2023/04/08 01:40:07;;;;;;;13.68;4.60;;;;;;;4.08;46.09;100313.31;7342175;19;20339;-70
2023/04/08 01:42:35;;;;;;;10.65;5.10;;;;;;;4.06;46.43;100330.13;7342109;19;20025;-72
2023/04/08 01:45:05;;;;;;;10.88;5.28;;;;;;;3.99;46.48;100311.84;7341644;19;20018;-73
2023/04/08 01:47:31;;;;;;;9.93;5.25;;;;;;;4.01;46.49;100325.88;7342401;19;20307;-74
2023/04/08 01:49:57;;;;;;;8.60;4.97;;;;;;;3.99;46.66;100334.72;7340556;19;20018;-70
2023/04/08 01:52:22;;;;;;;8.73;4.50;;;;;;;3.96;46.60;100324.28;7336820;19;20015;-71
2023/04/08 01:54:48;;;;;;;10.65;4.53;;;;;;;3.98;46.66;100325.94;7340054;19;20018;-71
2023/04/08 01:57:18;;;;;;;10.88;4.85;;;;;;;3.98;46.67;100323.31;7343052;19;20015;-76
2023/04/08 01:59:47;;;;;;;13.23;5.30;;;;;;;3.98;46.81;100325.09;7340976;19;20832;-71
2023/04/08 02:02:13;;;;;;;11.48;4.88;;;;;;;3.94;46.97;100323.50;7338037;19;20077;-73
2023/04/08 02:04:38;;;;;;;12.18;5.25;;;;;;;3.93;46.88;100333.19;7339393;19;20015;-74
2023/04/08 02:07:03;;;;;;;13.10;4.15;;;;;;;3.90;46.89;100330.63;7339158;19;20015;-72
2023/04/08 02:09:28;;;;;;;11.00;4.70;;;;;;;3.90;46.84;100332.41;7342036;19;20110;-68
2023/04/08 02:11:56;;;;;;;13.10;4.85;;;;;;;3.87;46.88;100328.09;7338441;19;20030;-69
2023/04/08 02:14:22;;;;;;;12.68;4.85;;;;;;;3.83;47.13;100331.75;7338251;19;20358;-67
2023/04/08 02:16:46;;;;;;;8.18;4.55;;;;;;;3.81;47.22;100328.31;7340225;19;20014;-67
2023/04/08 02:19:17;;;;;;;16.27;4.75;;;;;;;3.78;47.46;100328.41;7342076;19;20018;-79
2023/04/08 02:21:49;;;;;;;18.75;5.35;;;;;;;3.75;47.46;100323.22;7341614;19;20344;-73
2023/04/08 02:24:16;;;;;;;15.77;5.18;;;;;;;3.71;47.36;100326.03;7338310;19;20014;-71
2023/04/08 02:26:43;;;;;;;8.27;4.70;;;;;;;3.68;47.63;100323.47;7342354;19;20036;-67
2023/04/08 02:29:15;;;;;;;9.43;4.18;;;;;;;3.71;47.90;100326.03;7338192;19;20019;-68
2023/04/08 02:31:43;;;;;;;13.00;5.28;;;;;;;3.69;47.76;100333.97;7338799;19;20010;-72
2023/04/08 02:34:14;;;;;;;11.13;5.68;;;;;;;3.70;47.84;100335.72;7337862;19;20015;-71
2023/04/08 02:36:39;;;;;;;9.05;4.72;;;;;;;3.69;47.82;100333.13;7338302;19;20010;-70
2023/04/08 02:39:05;;;;;;;8.68;4.60;;;;;;;3.66;48.02;100339.34;7343233;19;20035;-72
2023/04/08 02:41:32;;;;;;;8.63;5.00;;;;;;;3.68;48.11;100339.28;7342410;19;20015;-68
2023/04/08 02:43:57;;;;;;;12.40;5.15;;;;;;;3.66;48.05;100339.34;7339021;19;20018;-69
2023/04/08 02:46:23;;;;;;;10.55;5.15;;;;;;;3.68;47.94;100348.06;7340132;19;20018;-70
2023/04/08 02:48:49;;;;;;;17.20;6.78;;;;;;;3.63;48.14;100334.16;7339451;19;20010;-71
2023/04/08 02:51:14;;;;;;;9.88;4.70;;;;;;;3.68;48.09;100339.28;7340105;19;20707;-69
2023/04/08 02:53:39;;;;;;;8.40;5.22;;;;;;;3.67;48.13;100341.06;7348644;19;20346;-72
2023/04/08 02:56:04;;;;;;;14.60;5.00;;;;;;;3.65;48.37;100348.16;7351666;19;20015;-78
2023/04/08 02:58:30;;;;;;;11.50;6.30;;;;;;;3.62;48.37;100348.25;7351065;19;20009;-79
2023/04/08 03:00:55;;;;;;;9.98;5.53;;;;;;;3.68;48.12;100348.06;7347714;19;20058;-78
2023/04/08 03:03:28;;;;;;;7.90;4.68;;;;;;;3.64;48.27;100349.94;7352436;19;20006;-78
2023/04/08 03:05:56;;;;;;;13.95;5.72;;;;;;;3.59;48.28;100351.88;7355081;19;20018;-73
2023/04/08 03:08:21;;;;;;;13.15;5.60;;;;;;;3.63;48.73;100349.97;7353776;19;20021;-72
2023/04/08 03:10:45;;;;;;;13.18;5.68;;;;;;;3.64;48.58;100349.06;7350529;19;20018;-73
2023/04/08 03:13:10;;;;;;;11.63;5.35;;;;;;;3.68;48.32;100348.06;7348338;19;20220;-72
2023/04/08 03:15:35;;;;;;;9.20;5.15;;;;;;;3.71;48.46;100353.25;7349010;19;20323;-69
2023/04/08 03:18:03;;;;;;;8.40;5.30;;;;;;;3.77;48.47;100350.41;7351226;19;20105;-71
2023/04/08 03:20:30;;;;;;;10.88;4.97;;;;;;;3.86;48.29;100352.75;7356012;19;20006;-75
2023/04/08 03:22:54;;;;;;;9.05;5.22;;;;;;;3.97;48.03;100342.69;7353184;19;20018;-75
2023/04/08 03:25:19;;;;;;;14.77;5.63;;;;;;;4.10;47.79;100350.19;7356817;19;20145;-72
2023/04/08 03:27:44;;;;;;;12.25;5.50;;;;;;;4.21;47.68;100348.06;7350564;19;20022;-78
2023/04/08 03:30:09;;;;;;;20.33;5.68;;;;;;;4.30;47.69;100351.25;7351341;19;20041;-72
2023/04/08 03:32:37;;;;;;;13.98;5.05;;;;;;;4.41;47.30;100344.72;7348304;19;20014;-74
2023/04/08 03:35:03;;;;;;;10.82;5.85;;;;;;;4.56;47.04;100350.34;7349121;19;20018;-76
2023/04/08 03:37:27;;;;;;;15.18;7.45;;;;;;;4.66;46.98;100345.56;7344205;19;20046;-72
2023/04/08 03:39:54;;;;;;;10.90;5.47;;;;;;;4.75;46.89;100351.38;7343779;19;20087;-72
2023/04/08 03:42:18;;;;;;;12.32;5.80;;;;;;;4.88;46.60;100346.53;7343504;19;20474;-72
2023/04/08 03:44:43;;;;;;;10.57;5.53;;;;;;;5.00;46.35;100350.47;7343475;19;20081;-72
2023/04/08 03:47:08;;;;;;;12.35;6.20;;;;;;;5.07;46.22;100347.56;7344939;19;20031;-74
2023/04/08 03:49:33;;;;;;;10.38;5.78;;;;;;;5.24;45.87;100349.56;7345125;19;20037;-73
2023/04/08 03:51:57;;;;;;;18.13;6.93;;;;;;;5.41;45.77;100347.13;7343422;19;20022;-72
2023/04/08 03:54:22;;;;;;;16.60;6.43;;;;;;;5.64;45.33;100354.16;7345533;19;20035;-73
2023/04/08 03:56:48;;;;;;;15.27;5.43;;;;;;;5.84;44.98;100350.72;7343341;19;20018;-72
2023/04/08 03:59:15;;;;;;;14.63;6.10;;;;;;;6.04;44.66;100348.13;7344083;19;20019;-71
2023/04/08 04:01:39;;;;;;;11.75;5.55;;;;;;;6.18;44.32;100340.47;7343829;19;20378;-73
2023/04/08 04:04:05;;;;;;;12.23;5.18;;;;;;;6.46;43.85;100352.50;7344799;19;20011;-73
2023/04/08 04:06:30;;;;;;;15.30;5.63;;;;;;;6.59;43.50;100351.06;7344217;19;20074;-74
2023/04/08 04:08:54;;;;;;;14.52;6.03;;;;;;;6.74;43.45;100362.78;7341113;19;20048;-73
2023/04/08 04:11:20;;;;;;;14.95;7.05;;;;;;;6.99;43.30;100359.91;7342524;19;20026;-71
2023/04/08 04:13:45;;;;;;;17.85;6.00;;;;;;;7.11;42.63;100360.16;7348468;19;20040;-73
2023/04/08 04:16:10;;;;;;;13.05;5.68;;;;;;;7.16;42.36;100350.22;7341519;19;20010;-72
2023/04/08 04:18:36;;;;;;;13.52;5.82;;;;;;;7.23;42.48;100353.44;7342638;19;20374;-73
2023/04/08 04:21:06;;;;;;;22.48;6.10;;;;;;;7.49;42.18;100355.75;7343383;19;20038;-73
2023/04/08 04:23:34;;;;;;;11.70;6.03;;;;;;;7.81;41.75;100348.03;7342715;19;20019;-74
2023/04/08 04:25:58;;;;;;;10.27;5.70;;;;;;;8.07;41.05;100344.94;7341987;19;20019;-74
2023/04/08 04:28:24;;;;;;;17.55;7.15;;;;;;;8.17;40.74;100362.13;7342411;19;20015;-72
2023/04/08 04:30:52;;;;;;;19.63;5.90;;;;;;;8.33;40.73;100348.97;7343709;19;20019;-73
2023/04/08 04:33:16;;;;;;;14.35;6.03;;;;;;;8.45;40.25;100348.34;7343677;19;20010;-73
2023/04/08 04:35:41;;;;;;;17.45;5.70;;;;;;;8.45;40.22;100352.81;7344932;19;20018;-71
2023/04/08 04:38:11;;;;;;;11.10;5.30;;;;;;;8.52;40.34;100359.50;7345354;19;20066;-75
2023/04/08 04:40:38;;;;;;;15.32;5.50;;;;;;;8.67;40.20;100348.09;7347512;19;20015;-73
2023/04/08 04:43:03;;;;;;;8.65;4.63;;;;;;;8.86;39.82;100343.53;7344599;19;20473;-72
2023/04/08 04:45:27;;;;;;;11.63;5.75;;;;;;;9.01;39.37;100353.34;7344915;19;20489;-72
2023/04/08 04:47:52;;;;;;;14.73;5.80;;;;;;;9.05;39.49;100369.97;7344882;19;20010;-73
2023/04/08 04:50:16;;;;;;;9.68;5.85;;;;;;;9.20;39.32;100360.31;7347036;19;20014;-72
2023/04/08 04:52:43;;;;;;;10.48;5.45;;;;;;;9.46;39.01;100354.44;7346393;19;20393;-71
2023/04/08 04:55:08;;;;;;;12.27;5.82;;;;;;;9.68;38.84;100359.41;7346734;19;20041;-72
2023/04/08 04:57:32;;;;;;;11.10;6.15;;;;;;;9.82;38.31;100363.00;7346756;19;20010;-71
2023/04/08 04:59:57;;;;;;;13.77;6.35;;;;;;;9.96;38.28;100353.34;7345667;19;20018;-72
2023/04/08 05:02:22;;;;;;;14.85;6.05;;;;;;;10.19;38.01;100359.09;7343607;19;20019;-72
2023/04/08 05:04:47;;;;;;;15.60;6.68;;;;;;;10.49;37.72;100359.13;7344043;19;20010;-72
2023/04/08 05:07:12;;;;;;;11.23;6.13;;;;;;;10.83;37.35;100363.28;7343899;19;20018;-74
2023/04/08 05:09:38;;;;;;;11.30;5.80;;;;;;;11.06;36.60;100364.50;7348618;19;20013;-74
2023/04/08 05:12:07;;;;;;;20.08;6.38;;;;;;;11.28;36.29;100364.91;7350572;19;20025;-72
2023/04/08 05:14:32;;;;;;;14.98;6.20;;;;;;;11.45;36.03;100368.31;7353272;19;20018;-71
2023/04/08 05:16:57;;;;;;;15.88;5.82;;;;;;;11.61;35.65;100366.38;7347944;19;20029;-71
2023/04/08 05:19:22;;;;;;;9.40;5.40;;;;;;;11.75;35.50;100373.47;7353184;19;20010;-79
2023/04/08 05:21:46;;;;;;;14.70;6.60;;;;;;;12.14;34.99;100372.72;7353965;19;20090;-73
2023/04/08 05:24:11;;;;;;;13.88;6.70;;;;;;;12.69;34.62;100375.22;7353871;19;20019;-71
2023/04/08 05:26:36;;;;;;;15.75;6.10;;;;;;;13.07;34.10;100367.22;7356761;19;20038;-73
2023/04/08 05:29:01;;;;;;;16.42;6.25;;;;;;;13.53;33.29;100372.00;7354623;19;20017;-74
2023/04/08 05:31:26;;;;;;;12.00;5.80;;;;;;;13.92;32.58;100371.78;7349229;19;20015;-73
2023/04/08 05:33:51;;;;;;;11.85;5.68;;;;;;;14.21;32.08;100369.63;7346081;19;20477;-72
2023/04/08 05:36:15;;;;;;;13.00;5.70;;;;;;;14.60;31.72;100375.63;7339960;19;20027;-73
2023/04/08 05:38:43;;;;;;;13.75;6.28;;;;;;;14.88;31.51;100376.09;7340386;19;20030;-73
2023/04/08 05:41:08;;;;;;;11.70;5.47;;;;;;;15.17;30.85;100364.88;7340288;19;20019;-73
2023/04/08 05:43:33;;;;;;;15.38;6.63;;;;;;;15.57;30.62;100373.34;7341826;19;20015;-74
2023/04/08 05:45:57;;;;;;;13.10;6.45;;;;;;;16.08;30.10;100370.91;7340900;19;20014;-74
2023/04/08 05:48:23;;;;;;;13.07;6.55;;;;;;;16.71;28.93;100369.19;7346074;19;20048;-73
2023/04/08 05:50:47;;;;;;;14.32;6.85;;;;;;;17.20;28.57;100363.13;7342154;19;20035;-72
2023/04/08 05:53:13;;;;;;;13.75;7.18;;;;;;;17.69;27.96;100366.91;7339614;19;20034;-72
2023/04/08 05:55:39;;;;;;;12.77;6.63;;;;;;;18.06;27.35;100364.41;7345074;19;20002;-73
2023/04/08 05:58:04;;;;;;;19.27;6.78;;;;;;;18.50;26.85;100372.00;7351534;19;20367;-74
2023/04/08 06:00:30;;;;;;;11.90;5.75;;;;;;;18.78;26.34;100375.69;7352871;19;20136;-72
2023/04/08 06:02:56;;;;;;;12.20;6.45;;;;;;;19.00;25.99;100368.25;7343036;19;20017;-72
2023/04/08 06:05:23;;;;;;;15.82;6.60;;;;;;;19.31;26.02;100366.16;7340910;19;20026;-71
2023/04/08 06:07:47;;;;;;;19.02;6.40;;;;;;;19.78;25.74;100359.72;7340667;19;20494;-78
2023/04/08 06:10:12;;;;;;;12.15;5.93;;;;;;;20.41;24.85;100358.91;7339794;19;20510;-77
2023/04/08 06:12:38;;;;;;;18.48;7.22;;;;;;;20.74;24.58;100354.63;7342661;19;20035;-74
2023/04/08 06:15:03;;;;;;;19.90;6.65;;;;;;;21.32;23.91;100350.28;7340142;19;20078;-71
2023/04/08 06:17:28;;;;;;;12.52;5.78;;;;;;;22.06;23.63;100352.28;7341114;19;20010;-72
2023/04/08 06:19:53;;;;;;;21.38;7.25;;;;;;;22.32;23.19;100354.06;7345286;19;20023;-72
2023/04/08 06:22:18;;;;;;;15.73;6.55;;;;;;;22.41;23.01;100358.47;7340773;19;20373;-73
2023/04/08 06:24:46;;;;;;;16.85;6.85;;;;;;;22.77;22.84;100362.59;7338840;19;20014;-72
2023/04/08 06:27:11;;;;;;;13.77;5.95;;;;;;;23.13;22.50;100352.19;7339679;19;20509;-73
2023/04/08 06:29:35;;;;;;;14.68;6.18;;;;;;;23.27;22.10;100356.03;7342217;19;20624;-75
2023/04/08 06:32:00;;;;;;;14.60;6.40;;;;;;;23.42;21.53;100361.63;7338306;19;20007;-73
2023/04/08 06:34:24;;;;;;;10.57;6.70;;;;;;;23.55;22.07;100350.22;7338082;19;20485;-72
2023/04/08 06:36:50;;;;;;;13.63;7.03;;;;;;;23.92;21.61;100350.41;7339717;19;20361;-72
2023/04/08 06:39:16;;;;;;;20.23;6.97;;;;;;;24.37;21.04;100355.09;7342274;19;20018;-72
2023/04/08 06:41:41;;;;;;;16.88;7.05;;;;;;;24.58;20.86;100348.97;7347921;19;20026;-76
2023/04/08 06:44:18;;;;;;;15.38;7.30;;;;;;;25.04;20.77;100359.84;7348266;19;20088;-74
2023/04/08 06:46:43;;;;;;;13.80;6.90;;;;;;;25.40;20.12;100352.59;7353826;19;20023;-76
2023/04/08 06:49:08;;;;;;;12.57;7.30;;;;;;;25.60;19.77;100348.31;7346669;19;20015;-76
2023/04/08 06:51:36;;;;;;;14.52;6.75;;;;;;;26.02;19.71;100355.78;7350727;19;20028;-75
2023/04/08 06:54:09;;;;;;;12.20;6.75;;;;;;;26.19;19.40;100352.78;7350782;19;20010;-76
2023/04/08 06:56:36;;;;;;;12.37;7.83;;;;;;;26.42;19.40;100353.50;7351816;19;20448;-80
2023/04/08 06:59:01;;;;;;;11.55;7.82;;;;;;;26.84;19.11;100347.16;7349921;19;20070;-77
2023/04/08 07:01:26;;;;;;;12.27;6.95;;;;;;;27.25;18.68;100360.13;7351203;19;20028;-78
2023/04/08 07:03:51;;;;;;;12.68;6.55;;;;;;;27.76;18.58;100347.84;7357902;19;20025;-75
2023/04/08 07:06:17;;;;;;;17.10;6.80;;;;;;;28.22;18.33;100347.16;7357863;19;20022;-76
2023/04/08 07:08:41;;;;;;;17.67;7.80;;;;;;;27.90;18.15;100351.44;7357034;19;20497;-77
2023/04/08 07:11:06;;;;;;;18.58;7.25;;;;;;;27.38;18.29;100349.28;7358311;19;20037;-74
2023/04/08 07:13:31;;;;;;;13.70;7.20;;;;;;;27.32;18.39;100350.06;7356426;19;20086;-74
2023/04/08 07:15:56;;;;;;;16.05;8.85;;;;;;;27.32;18.47;100342.69;7350772;19;20051;-76
2023/04/08 07:18:22;;;;;;;12.32;6.10;;;;;;;27.54;18.59;100345.38;7350762;19;20010;-73
2023/04/08 07:20:54;;;;;;;13.70;7.55;;;;;;;27.64;18.25;100341.25;7350112;19;20014;-75
2023/04/08 07:23:20;;;;;;;18.77;8.48;;;;;;;27.39;18.52;100357.28;7353417;19;20018;-75
2023/04/08 07:25:47;;;;;;;17.85;7.68;;;;;;;27.51;18.23;100346.63;7350930;19;20022;-76
2023/04/08 07:28:11;;;;;;;12.05;7.78;;;;;;;27.96;17.81;100336.09;7352354;19;20006;-77
2023/04/08 07:30:40;;;;;;;17.20;7.95;;;;;;;27.86;17.88;100336.50;7350696;19;20010;-74
2023/04/08 07:33:05;;;;;;;12.07;7.20;;;;;;;27.00;18.41;100338.69;7347862;19;20040;-75
2023/04/08 07:35:33;;;;;;;19.98;8.75;;;;;;;26.34;19.21;100337.22;7347214;19;20010;-75
2023/04/08 07:37:59;;;;;;;18.73;8.95;;;;;;;25.89;19.61;100336.47;7348955;19;20011;-73
2023/04/08 07:40:26;;;;;;;17.88;7.97;;;;;;;25.57;20.01;100339.63;7347002;19;20013;-78
2023/04/08 07:42:51;;;;;;;23.20;8.73;;;;;;;25.30;19.84;100336.50;7352156;19;20081;-75
2023/04/08 07:45:18;;;;;;;14.27;7.95;;;;;;;25.07;19.69;100343.06;7345454;19;20474;-76
2023/04/08 07:47:46;;;;;;;19.13;8.05;;;;;;;25.06;19.97;100352.28;7345409;19;20022;-77
2023/04/08 07:50:12;;;;;;;12.88;8.00;;;;;;;25.35;19.71;100346.88;7347163;19;20025;-78
2023/04/08 07:52:36;;;;;;;21.15;7.88;;;;;;;25.52;19.51;100329.25;7346803;19;20010;-77
2023/04/08 07:55:01;;;;;;;17.88;8.70;;;;;;;25.82;19.55;100340.19;7349238;19;20007;-77
2023/04/08 07:57:26;;;;;;;17.08;7.78;;;;;;;25.77;19.46;100335.28;7346311;19;20385;-77
2023/04/08 07:59:53;;;;;;;17.25;8.05;;;;;;;26.48;19.11;100340.94;7344122;19;20082;-75
2023/04/08 08:02:22;;;;;;;16.88;7.15;;;;;;;26.45;18.51;100350.38;7344868;19;20372;-75
2023/04/08 08:04:47;;;;;;;12.40;6.55;;;;;;;26.12;18.82;100338.22;7345848;19;20334;-76
2023/04/08 08:07:11;;;;;;;10.50;6.50;;;;;;;26.50;18.65;100336.97;7344313;19;20340;-75
2023/04/08 08:09:36;;;;;;;12.77;7.20;;;;;;;27.53;17.75;100335.47;7344388;19;20073;-75
2023/04/08 08:12:00;;;;;;;16.42;7.30;;;;;;;28.16;17.24;100339.75;7345204;19;20405;-76
2023/04/08 08:14:28;;;;;;;9.38;5.43;;;;;;;28.02;17.19;100341.59;7345276;19;20053;-76
2023/04/08 08:16:55;;;;;;;16.73;6.85;;;;;;;27.11;17.74;100332.66;7346679;19;20021;-77
2023/04/08 08:19:20;;;;;;;18.90;7.25;;;;;;;27.61;17.92;100327.09;7345718;19;20074;-75
2023/04/08 08:21:45;;;;;;;14.95;6.32;;;;;;;27.86;17.87;100327.41;7348168;19;20055;-74
2023/04/08 08:24:11;;;;;;;15.98;6.88;;;;;;;28.40;17.63;100327.38;7343167;19;20073;-71
2023/04/08 08:26:36;;;;;;;13.63;6.90;;;;;;;28.52;16.73;100337.53;7342870;19;20031;-73
2023/04/08 08:29:01;;;;;;;17.90;7.18;;;;;;;28.30;17.55;100327.78;7342307;19;20022;-72
2023/04/08 08:31:27;;;;;;;16.48;9.48;;;;;;;28.83;16.88;100325.13;7344602;19;20010;-73
2023/04/08 08:33:51;;;;;;;10.38;7.10;;;;;;;29.04;16.35;100319.41;7342698;19;20018;-71
2023/04/08 08:36:16;;;;;;;13.35;7.15;;;;;;;28.55;17.22;100317.06;7345086;19;20014;-76
2023/04/08 08:38:42;;;;;;;9.75;5.60;;;;;;;28.19;16.92;100325.66;7345818;19;20015;-73
2023/04/08 08:41:08;;;;;;;12.93;6.45;;;;;;;27.67;17.26;100326.28;7346385;19;20089;-73
2023/04/08 08:43:34;;;;;;;16.27;7.70;;;;;;;26.02;18.15;100322.13;7344423;19;20031;-74
2023/04/08 08:46:00;;;;;;;13.07;7.13;;;;;;;26.35;18.42;100320.63;7343276;19;20015;-71
2023/04/08 08:48:28;;;;;;;14.05;6.97;;;;;;;25.86;19.02;100317.72;7342589;19;20015;-76
2023/04/08 08:50:55;;;;;;;20.63;8.10;;;;;;;26.73;18.33;100317.63;7347481;19;20078;-71
2023/04/08 08:53:22;;;;;;;15.40;7.18;;;;;;;26.44;17.72;100306.81;7348243;19;20007;-74
2023/04/08 08:55:47;;;;;;;18.90;7.63;;;;;;;26.86;18.06;100311.41;7353633;19;20051;-74
2023/04/08 08:58:12;;;;;;;24.50;8.57;;;;;;;27.02;17.69;100309.22;7348647;19;20094;-74
2023/04/08 09:00:41;;;;;;;19.15;7.25;;;;;;;27.48;17.49;100306.78;7348830;19;20012;-74
2023/04/08 09:03:20;;;;;;;25.90;8.80;;;;;;;28.25;17.75;100308.34;7345378;19;20048;-75
2023/04/08 09:05:52;;;;;;;14.65;6.38;;;;;;;29.31;17.05;100311.13;7348176;19;20007;-75
2023/04/08 09:08:30;;;;;;;11.95;6.20;;;;;;;29.71;16.39;100315.44;7346178;19;20034;-74
2023/04/08 09:11:11;;;;;;;9.57;6.68;;;;;;;28.11;16.95;100315.66;7351041;19;20014;-73
2023/04/08 09:13:36;;;;;;;14.07;6.20;;;;;;;27.51;16.58;100308.28;7355301;19;20528;-73
2023/04/08 09:16:12;;;;;;;12.63;5.93;;;;;;;27.33;17.07;100327.09;7358479;19;20047;-75
2023/04/08 09:18:38;;;;;;;10.63;6.00;;;;;;;27.76;16.47;100312.22;7363447;19;20071;-75
2023/04/08 09:21:04;;;;;;;11.05;5.68;;;;;;;27.76;16.45;100304.00;7352660;19;20077;-76
2023/04/08 09:23:48;;;;;;;9.73;6.28;;;;;;;27.47;17.11;100315.19;7354269;19;20034;-77
2023/04/08 09:26:20;;;;;;;14.70;6.40;;;;;;;27.59;17.09;100302.66;7354381;19;20051;-76
2023/04/08 09:29:03;;;;;;;;;;;;;;;29.55;17.09;100313.19;7350221;19;20027;-75
2023/04/08 09:31:30;;;;;;;10.05;5.82;;;;;;;29.45;16.05;100305.41;7346105;19;19915;-71
2023/04/08 09:34:03;;;;;;;12.23;6.97;;;;;;;29.20;15.81;100301.63;7343776;19;20019;-72
2023/04/08 09:36:28;;;;;;;12.17;6.83;;;;;;;28.86;15.65;100305.47;7342941;19;20018;-74
2023/04/08 09:38:54;;;;;;;8.00;5.47;;;;;;;28.60;16.12;100303.56;7345213;19;20288;-72
2023/04/08 09:41:23;;;;;;;7.47;5.65;;;;;;;28.15;16.13;100297.78;7342283;19;20015;-74
2023/04/08 09:43:50;;;;;;;9.65;5.65;;;;;;;27.97;16.41;100299.41;7342063;19;20386;-74
2023/04/08 09:46:27;;;;;;;11.95;6.47;;;;;;;27.45;17.01;100292.63;7342777;19;20050;-73
2023/04/08 09:49:25;;;;;;;15.20;8.52;;;;;;;26.68;17.51;100309.16;7345152;19;20014;-71
2023/04/08 09:51:59;;;;;;;11.30;6.68;;;;;;;24.74;18.98;100301.59;7346174;19;20021;-70
2023/04/08 09:54:48;;;;;;;11.93;7.05;;;;;;;24.26;19.04;100305.59;7347687;19;20087;-74
2023/04/08 09:57:20;;;;;;;11.40;6.40;;;;;;;24.68;18.95;100318.72;7348732;19;20006;-73
2023/04/08 09:59:56;;;;;;;10.50;5.95;;;;;;;25.14;18.77;100301.22;7353993;19;20018;-73
2023/04/08 10:02:29;;;;;;;11.50;6.78;;;;;;;24.21;19.03;100295.22;7351052;19;20006;-71
2023/04/08 10:04:58;;;;;;;12.73;6.50;;;;;;;24.15;19.02;100299.50;7343647;19;20023;-71
2023/04/08 10:07:22;;;;;;;9.00;5.72;;;;;;;24.37;18.66;100292.41;7343593;19;20021;-72
2023/04/08 10:09:48;;;;;;;11.65;6.40;;;;;;;24.96;18.43;100282.47;7345413;19;20014;-72
2023/04/08 10:12:13;;;;;;;11.75;5.80;;;;;;;25.20;17.93;100296.88;7340289;19;20352;-71
2023/04/08 10:14:39;;;;;;;10.15;7.03;;;;;;;22.89;20.00;100305.16;7340025;19;20470;-73
2023/04/08 10:17:29;;;;;;;9.68;6.95;;;;;;;21.45;21.19;100283.88;7340762;19;20018;-72
2023/04/08 10:19:57;;;;;;;9.25;6.25;;;;;;;19.19;23.15;100290.66;7343113;19;20349;-72
2023/04/08 10:22:29;;;;;;;11.77;7.10;;;;;;;17.67;24.60;100294.25;7347553;19;20085;-73
2023/04/08 10:25:16;;;;;;;12.73;6.45;;;;;;;16.53;25.90;100298.06;7340806;19;20387;-74
2023/04/08 10:27:43;;;;;;;11.77;7.03;;;;;;;15.72;27.30;100293.28;7342480;19;20060;-73
2023/04/08 10:30:30;;;;;;;13.45;7.13;;;;;;;15.63;28.18;100296.75;7347301;19;20062;-72
2023/04/08 10:33:00;;;;;;;11.63;7.55;;;;;;;14.80;29.25;100299.78;7342333;19;20010;-73
2023/04/08 10:35:31;;;;;;;11.98;6.97;;;;;;;14.65;29.27;100296.50;7346472;19;20041;-74
2023/04/08 10:37:57;;;;;;;15.77;7.13;;;;;;;14.31;29.85;100308.09;7346827;19;20026;-74
2023/04/08 10:40:22;;;;;;;12.05;6.80;;;;;;;14.11;30.32;100297.03;7342177;19;20022;-73
2023/04/08 10:42:54;;;;;;;12.77;6.60;;;;;;;14.01;30.34;100297.84;7340603;19;20042;-73
2023/04/08 10:45:18;;;;;;;20.25;7.45;;;;;;;13.77;30.71;100292.50;7339510;19;20018;-78
2023/04/08 10:47:43;;;;;;;11.23;7.20;;;;;;;13.74;30.77;100282.88;7340045;19;20029;-74
2023/04/08 10:50:15;;;;;;;12.80;6.97;;;;;;;13.65;31.17;100293.44;7343682;19;20014;-73
2023/04/08 10:52:51;;;;;;;15.30;7.00;;;;;;;13.61;30.92;100281.22;7339545;19;20015;-73
2023/04/08 10:55:22;;;;;;;14.20;6.75;;;;;;;13.60;31.29;100282.19;7344890;19;20014;-71
2023/04/08 10:57:48;;;;;;;16.30;6.90;;;;;;;13.53;31.67;100283.63;7341757;19;20462;-71
2023/04/08 11:00:17;;;;;;;14.25;6.63;;;;;;;13.31;32.30;100274.47;7340974;19;20019;-73
2023/04/08 11:02:43;;;;;;;14.07;6.55;;;;;;;13.27;32.47;100269.44;7339395;19;20019;-72
2023/04/08 11:05:11;;;;;;;12.05;6.72;;;;;;;13.47;32.19;100268.84;7338144;19;20461;-72
2023/04/08 11:07:42;;;;;;;11.50;6.28;;;;;;;13.61;31.96;100275.84;7337841;19;20110;-72
2023/04/08 11:10:08;;;;;;;16.40;6.53;;;;;;;13.41;32.71;100264.78;7338135;19;20425;-72
2023/04/08 11:12:36;;;;;;;13.20;6.55;;;;;;;13.42;32.74;100262.97;7343196;19;20398;-72
2023/04/08 11:15:03;;;;;;;12.05;6.63;;;;;;;13.46;32.92;100261.75;7338598;19;20067;-71
2023/04/08 11:17:30;;;;;;;11.23;6.18;;;;;;;13.60;32.53;100263.44;7337814;19;20381;-68
2023/04/08 11:19:55;;;;;;;13.75;6.90;;;;;;;13.45;32.79;100258.22;7340410;19;20014;-72
2023/04/08 11:22:20;;;;;;;15.95;6.95;;;;;;;13.33;33.26;100253.75;7340340;19;20022;-68